sensor_id;sensor_type;location;lat;lon;timestamp;P1;durP1;ratioP1;P2;durP2;ratioP2
77802;SDS011;66993;48.256;16.422;2023-07-13T00:01:23;4.3;;;2.0;;
77802;SDS011;66993;48.256;16.422;2023-07-13T00:06:24;3.6;;;1.9;;
77802;SDS011;66993;48.256;16.422;2023-07-13T00:11:26;4.0;;;2.2;;
77802;SDS011;66993;48.256;16.422;2023-07-13T00:16:27;4.8;;;2.3;;
77802;SDS011;66993;48.256;16.422;2023-07-13T00:21:28;4.1;;;2.6;;
77802;SDS011;66993;48.256;16.422;2023-07-13T00:26:29;4.1;;;2.3;;
77802;SDS011;66993;48.256;16.422;2023-07-13T00:31:31;4.3;;;1.9;;
77802;SDS011;66993;48.256;16.422;2023-07-13T00:36:32;5.0;;;2.2;;
77802;SDS011;66993;48.256;16.422;2023-07-13T00:41:33;4.6;;;2.1;;
77802;SDS011;66993;48.256;16.422;2023-07-13T00:46:34;4.4;;;2.1;;
77802;SDS011;66993;48.256;16.422;2023-07-13T00:51:36;4.8;;;2.0;;
77802;SDS011;66993;48.256;16.422;2023-07-13T00:56:36;4.3;;;1.9;;
77802;SDS011;66993;48.256;16.422;2023-07-13T01:01:38;4.2;;;2.1;;
77802;SDS011;66993;48.256;16.422;2023-07-13T01:06:39;4.2;;;2.1;;
77802;SDS011;66993;48.256;16.422;2023-07-13T01:11:41;6.0;;;2.4;;
77802;SDS011;66993;48.256;16.422;2023-07-13T01:16:42;5.5;;;2.3;;
77802;SDS011;66993;48.256;16.422;2023-07-13T01:21:42;3.1;;;1.6;;
77802;SDS011;66993;48.256;16.422;2023-07-13T01:26:44;3.8;;;1.7;;
77802;SDS011;66993;48.256;16.422;2023-07-13T01:31:45;4.2;;;1.6;;
77802;SDS011;66993;48.256;16.422;2023-07-13T01:36:46;2.8;;;1.6;;
77802;SDS011;66993;48.256;16.422;2023-07-13T01:41:47;2.9;;;1.5;;
77802;SDS011;66993;48.256;16.422;2023-07-13T01:46:49;4.1;;;1.5;;
77802;SDS011;66993;48.256;16.422;2023-07-13T01:51:50;3.4;;;1.7;;
77802;SDS011;66993;48.256;16.422;2023-07-13T01:56:51;2.9;;;1.5;;
77802;SDS011;66993;48.256;16.422;2023-07-13T02:01:52;3.0;;;1.8;;
77802;SDS011;66993;48.256;16.422;2023-07-13T02:06:53;3.6;;;1.8;;
77802;SDS011;66993;48.256;16.422;2023-07-13T02:11:54;3.7;;;1.6;;
77802;SDS011;66993;48.256;16.422;2023-07-13T02:16:55;4.2;;;1.8;;
77802;SDS011;66993;48.256;16.422;2023-07-13T02:21:57;3.4;;;1.7;;
77802;SDS011;66993;48.256;16.422;2023-07-13T02:26:58;4.3;;;2.0;;
77802;SDS011;66993;48.256;16.422;2023-07-13T02:31:59;3.3;;;1.7;;
77802;SDS011;66993;48.256;16.422;2023-07-13T02:37:01;4.0;;;1.7;;
77802;SDS011;66993;48.256;16.422;2023-07-13T02:42:02;3.6;;;1.9;;
77802;SDS011;66993;48.256;16.422;2023-07-13T02:47:03;4.9;;;1.9;;
77802;SDS011;66993;48.256;16.422;2023-07-13T02:52:05;3.9;;;2.0;;
77802;SDS011;66993;48.256;16.422;2023-07-13T02:57:06;3.6;;;2.0;;
77802;SDS011;66993;48.256;16.422;2023-07-13T03:02:07;4.2;;;1.8;;
77802;SDS011;66993;48.256;16.422;2023-07-13T03:07:08;5.8;;;2.1;;
77802;SDS011;66993;48.256;16.422;2023-07-13T03:12:09;4.3;;;2.0;;
77802;SDS011;66993;48.256;16.422;2023-07-13T03:17:10;4.5;;;2.3;;
77802;SDS011;66993;48.256;16.422;2023-07-13T03:22:11;4.9;;;2.3;;
77802;SDS011;66993;48.256;16.422;2023-07-13T03:27:13;5.0;;;2.3;;
77802;SDS011;66993;48.256;16.422;2023-07-13T03:32:14;3.9;;;2.1;;
77802;SDS011;66993;48.256;16.422;2023-07-13T03:37:15;4.1;;;2.3;;
77802;SDS011;66993;48.256;16.422;2023-07-13T03:42:16;5.2;;;2.5;;
77802;SDS011;66993;48.256;16.422;2023-07-13T03:47:18;4.7;;;2.4;;
77802;SDS011;66993;48.256;16.422;2023-07-13T03:52:19;3.7;;;2.0;;
77802;SDS011;66993;48.256;16.422;2023-07-13T03:57:20;5.8;;;2.2;;
77802;SDS011;66993;48.256;16.422;2023-07-13T04:02:21;4.7;;;2.5;;
77802;SDS011;66993;48.256;16.422;2023-07-13T04:07:23;5.4;;;3.1;;
77802;SDS011;66993;48.256;16.422;2023-07-13T04:12:24;6.1;;;2.7;;
77802;SDS011;66993;48.256;16.422;2023-07-13T04:17:25;5.0;;;2.2;;
77802;SDS011;66993;48.256;16.422;2023-07-13T04:22:26;6.1;;;2.6;;
77802;SDS011;66993;48.256;16.422;2023-07-13T04:27:28;5.7;;;2.5;;
77802;SDS011;66993;48.256;16.422;2023-07-13T04:32:29;4.3;;;2.3;;
77802;SDS011;66993;48.256;16.422;2023-07-13T04:37:35;4.9;;;2.7;;
77802;SDS011;66993;48.256;16.422;2023-07-13T04:42:31;6.9;;;2.7;;
77802;SDS011;66993;48.256;16.422;2023-07-13T04:47:33;7.5;;;2.7;;
77802;SDS011;66993;48.256;16.422;2023-07-13T04:52:34;6.1;;;3.1;;
77802;SDS011;66993;48.256;16.422;2023-07-13T04:57:35;6.1;;;3.2;;
77802;SDS011;66993;48.256;16.422;2023-07-13T05:02:37;4.4;;;2.7;;
77802;SDS011;66993;48.256;16.422;2023-07-13T05:07:38;4.8;;;2.3;;
77802;SDS011;66993;48.256;16.422;2023-07-13T05:12:39;5.6;;;2.3;;
77802;SDS011;66993;48.256;16.422;2023-07-13T05:17:40;5.9;;;2.6;;
77802;SDS011;66993;48.256;16.422;2023-07-13T05:22:41;4.9;;;2.8;;
77802;SDS011;66993;48.256;16.422;2023-07-13T05:27:43;3.9;;;2.3;;
77802;SDS011;66993;48.256;16.422;2023-07-13T05:32:44;4.3;;;2.2;;
77802;SDS011;66993;48.256;16.422;2023-07-13T05:37:45;5.2;;;2.4;;
77802;SDS011;66993;48.256;16.422;2023-07-13T05:42:46;3.9;;;2.2;;
77802;SDS011;66993;48.256;16.422;2023-07-13T05:47:48;5.0;;;2.3;;
77802;SDS011;66993;48.256;16.422;2023-07-13T05:52:49;3.8;;;2.2;;
77802;SDS011;66993;48.256;16.422;2023-07-13T05:57:51;5.0;;;2.0;;
77802;SDS011;66993;48.256;16.422;2023-07-13T06:02:51;5.9;;;2.4;;
77802;SDS011;66993;48.256;16.422;2023-07-13T06:07:53;4.6;;;2.2;;
77802;SDS011;66993;48.256;16.422;2023-07-13T06:12:54;4.5;;;2.3;;
77802;SDS011;66993;48.256;16.422;2023-07-13T06:17:55;4.0;;;2.2;;
77802;SDS011;66993;48.256;16.422;2023-07-13T06:22:57;3.5;;;2.0;;
77802;SDS011;66993;48.256;16.422;2023-07-13T06:27:58;4.3;;;1.9;;
77802;SDS011;66993;48.256;16.422;2023-07-13T06:32:59;3.8;;;1.8;;
77802;SDS011;66993;48.256;16.422;2023-07-13T06:38:01;3.5;;;1.7;;
77802;SDS011;66993;48.256;16.422;2023-07-13T06:43:02;4.0;;;1.6;;
77802;SDS011;66993;48.256;16.422;2023-07-13T06:48:03;3.3;;;1.5;;
77802;SDS011;66993;48.256;16.422;2023-07-13T06:53:04;3.8;;;1.9;;
77802;SDS011;66993;48.256;16.422;2023-07-13T06:58:06;4.1;;;1.9;;
77802;SDS011;66993;48.256;16.422;2023-07-13T07:03:07;3.2;;;1.6;;
77802;SDS011;66993;48.256;16.422;2023-07-13T07:08:08;4.2;;;1.8;;
77802;SDS011;66993;48.256;16.422;2023-07-13T07:13:09;3.7;;;1.5;;
77802;SDS011;66993;48.256;16.422;2023-07-13T07:18:10;2.6;;;1.4;;
77802;SDS011;66993;48.256;16.422;2023-07-13T07:23:12;4.5;;;1.7;;
77802;SDS011;66993;48.256;16.422;2023-07-13T07:28:14;3.9;;;1.8;;
77802;SDS011;66993;48.256;16.422;2023-07-13T07:33:14;4.0;;;1.6;;
77802;SDS011;66993;48.256;16.422;2023-07-13T07:38:15;2.6;;;1.4;;
77802;SDS011;66993;48.256;16.422;2023-07-13T07:43:17;2.6;;;1.4;;
77802;SDS011;66993;48.256;16.422;2023-07-13T07:48:18;4.1;;;1.5;;
77802;SDS011;66993;48.256;16.422;2023-07-13T07:53:19;4.3;;;1.8;;
77802;SDS011;66993;48.256;16.422;2023-07-13T07:58:21;2.3;;;1.3;;
77802;SDS011;66993;48.256;16.422;2023-07-13T08:03:22;2.7;;;1.4;;
77802;SDS011;66993;48.256;16.422;2023-07-13T08:08:26;2.9;;;1.5;;
77802;SDS011;66993;48.256;16.422;2023-07-13T08:13:24;3.7;;;1.6;;
77802;SDS011;66993;48.256;16.422;2023-07-13T08:18:26;3.4;;;1.4;;
77802;SDS011;66993;48.256;16.422;2023-07-13T08:23:27;2.9;;;1.4;;
77802;SDS011;66993;48.256;16.422;2023-07-13T08:28:28;3.5;;;1.5;;
77802;SDS011;66993;48.256;16.422;2023-07-13T08:33:29;3.4;;;1.6;;
77802;SDS011;66993;48.256;16.422;2023-07-13T08:38:31;3.6;;;1.7;;
77802;SDS011;66993;48.256;16.422;2023-07-13T08:43:34;2.8;;;1.6;;
77802;SDS011;66993;48.256;16.422;2023-07-13T08:48:34;4.1;;;1.7;;
77802;SDS011;66993;48.256;16.422;2023-07-13T08:53:36;2.8;;;1.6;;
77802;SDS011;66993;48.256;16.422;2023-07-13T08:58:36;3.5;;;1.8;;
77802;SDS011;66993;48.256;16.422;2023-07-13T09:03:39;3.7;;;2.0;;
77802;SDS011;66993;48.256;16.422;2023-07-13T09:08:43;3.7;;;2.1;;
77802;SDS011;66993;48.256;16.422;2023-07-13T09:13:41;4.6;;;2.0;;
77802;SDS011;66993;48.256;16.422;2023-07-13T09:18:42;4.9;;;2.1;;
77802;SDS011;66993;48.256;16.422;2023-07-13T09:23:42;4.3;;;2.4;;
77802;SDS011;66993;48.256;16.422;2023-07-13T09:28:44;6.8;;;2.7;;
77802;SDS011;66993;48.256;16.422;2023-07-13T09:33:45;5.5;;;3.1;;
77802;SDS011;66993;48.256;16.422;2023-07-13T09:38:46;6.4;;;3.2;;
77802;SDS011;66993;48.256;16.422;2023-07-13T09:48:49;7.5;;;3.1;;
77802;SDS011;66993;48.256;16.422;2023-07-13T09:53:50;5.1;;;2.9;;
77802;SDS011;66993;48.256;16.422;2023-07-13T09:58:51;6.4;;;3.6;;
77802;SDS011;66993;48.256;16.422;2023-07-13T10:03:53;4.9;;;2.9;;
77802;SDS011;66993;48.256;16.422;2023-07-13T10:08:56;5.4;;;3.0;;
77802;SDS011;66993;48.256;16.422;2023-07-13T10:13:56;4.8;;;2.7;;
77802;SDS011;66993;48.256;16.422;2023-07-13T10:18:57;6.4;;;3.2;;
77802;SDS011;66993;48.256;16.422;2023-07-13T10:24:00;4.6;;;3.1;;
77802;SDS011;66993;48.256;16.422;2023-07-13T10:29:01;5.5;;;3.1;;
77802;SDS011;66993;48.256;16.422;2023-07-13T10:34:00;5.0;;;2.8;;
77802;SDS011;66993;48.256;16.422;2023-07-13T10:39:02;4.7;;;3.2;;
77802;SDS011;66993;48.256;16.422;2023-07-13T10:44:03;5.5;;;3.1;;
77802;SDS011;66993;48.256;16.422;2023-07-13T10:49:05;3.7;;;2.7;;
77802;SDS011;66993;48.256;16.422;2023-07-13T10:54:11;5.2;;;2.7;;
77802;SDS011;66993;48.256;16.422;2023-07-13T10:59:10;4.5;;;2.6;;
77802;SDS011;66993;48.256;16.422;2023-07-13T11:04:08;4.7;;;2.9;;
77802;SDS011;66993;48.256;16.422;2023-07-13T11:09:24;4.4;;;2.6;;
77802;SDS011;66993;48.256;16.422;2023-07-13T11:24:14;5.2;;;2.9;;
77802;SDS011;66993;48.256;16.422;2023-07-13T11:29:22;5.0;;;3.1;;
77802;SDS011;66993;48.256;16.422;2023-07-13T11:34:25;4.7;;;2.9;;
77802;SDS011;66993;48.256;16.422;2023-07-13T11:39:18;4.1;;;2.7;;
77802;SDS011;66993;48.256;16.422;2023-07-13T11:44:18;6.2;;;2.9;;
77802;SDS011;66993;48.256;16.422;2023-07-13T11:49:20;5.7;;;2.7;;
77802;SDS011;66993;48.256;16.422;2023-07-13T11:54:23;5.7;;;2.7;;
77802;SDS011;66993;48.256;16.422;2023-07-13T11:59:23;4.6;;;2.6;;
77802;SDS011;66993;48.256;16.422;2023-07-13T12:04:24;5.1;;;2.9;;
77802;SDS011;66993;48.256;16.422;2023-07-13T12:09:26;4.7;;;2.3;;
77802;SDS011;66993;48.256;16.422;2023-07-13T12:14:26;5.9;;;2.7;;
77802;SDS011;66993;48.256;16.422;2023-07-13T12:19:27;4.7;;;2.7;;
77802;SDS011;66993;48.256;16.422;2023-07-13T12:24:28;5.8;;;2.7;;
77802;SDS011;66993;48.256;16.422;2023-07-13T12:29:31;5.3;;;2.7;;
77802;SDS011;66993;48.256;16.422;2023-07-13T12:34:31;5.2;;;2.6;;
77802;SDS011;66993;48.256;16.422;2023-07-13T12:39:34;4.3;;;2.1;;
77802;SDS011;66993;48.256;16.422;2023-07-13T12:44:33;4.9;;;2.6;;
77802;SDS011;66993;48.256;16.422;2023-07-13T12:49:34;4.9;;;2.6;;
77802;SDS011;66993;48.256;16.422;2023-07-13T12:54:38;4.1;;;2.3;;
77802;SDS011;66993;48.256;16.422;2023-07-13T12:59:37;4.5;;;2.4;;
77802;SDS011;66993;48.256;16.422;2023-07-13T13:04:39;4.7;;;2.4;;
77802;SDS011;66993;48.256;16.422;2023-07-13T13:09:40;4.5;;;2.5;;
77802;SDS011;66993;48.256;16.422;2023-07-13T13:14:41;4.5;;;2.5;;
77802;SDS011;66993;48.256;16.422;2023-07-13T13:19:42;5.7;;;2.9;;
77802;SDS011;66993;48.256;16.422;2023-07-13T13:24:43;5.6;;;2.5;;
77802;SDS011;66993;48.256;16.422;2023-07-13T13:29:45;5.2;;;2.8;;
77802;SDS011;66993;48.256;16.422;2023-07-13T13:34:46;5.0;;;2.8;;
77802;SDS011;66993;48.256;16.422;2023-07-13T13:39:47;5.2;;;2.7;;
77802;SDS011;66993;48.256;16.422;2023-07-13T13:44:48;4.1;;;2.7;;
77802;SDS011;66993;48.256;16.422;2023-07-13T13:49:50;5.6;;;2.5;;
77802;SDS011;66993;48.256;16.422;2023-07-13T13:54:51;4.6;;;2.5;;
77802;SDS011;66993;48.256;16.422;2023-07-13T13:59:52;4.9;;;2.7;;
77802;SDS011;66993;48.256;16.422;2023-07-13T14:04:54;5.3;;;2.6;;
77802;SDS011;66993;48.256;16.422;2023-07-13T14:09:55;4.8;;;2.8;;
77802;SDS011;66993;48.256;16.422;2023-07-13T14:14:56;4.7;;;2.5;;
77802;SDS011;66993;48.256;16.422;2023-07-13T14:19:57;5.8;;;2.5;;
77802;SDS011;66993;48.256;16.422;2023-07-13T14:24:58;6.1;;;3.4;;
77802;SDS011;66993;48.256;16.422;2023-07-13T14:29:59;5.8;;;2.6;;
77802;SDS011;66993;48.256;16.422;2023-07-13T14:35:01;4.8;;;2.7;;
77802;SDS011;66993;48.256;16.422;2023-07-13T14:40:04;4.2;;;2.5;;
77802;SDS011;66993;48.256;16.422;2023-07-13T14:45:04;5.7;;;2.5;;
77802;SDS011;66993;48.256;16.422;2023-07-13T14:50:07;5.4;;;2.8;;
77802;SDS011;66993;48.256;16.422;2023-07-13T14:55:08;6.7;;;3.0;;
77802;SDS011;66993;48.256;16.422;2023-07-13T15:05:13;4.9;;;2.8;;
77802;SDS011;66993;48.256;16.422;2023-07-13T15:10:14;5.4;;;2.5;;
77802;SDS011;66993;48.256;16.422;2023-07-13T15:15:11;5.1;;;2.8;;
77802;SDS011;66993;48.256;16.422;2023-07-13T15:20:16;6.0;;;3.0;;
77802;SDS011;66993;48.256;16.422;2023-07-13T15:25:15;6.1;;;3.0;;
77802;SDS011;66993;48.256;16.422;2023-07-13T15:30:14;4.0;;;2.6;;
77802;SDS011;66993;48.256;16.422;2023-07-13T15:35:17;4.2;;;2.5;;
77802;SDS011;66993;48.256;16.422;2023-07-13T15:40:17;5.2;;;2.7;;
77802;SDS011;66993;48.256;16.422;2023-07-13T15:45:20;5.6;;;2.6;;
77802;SDS011;66993;48.256;16.422;2023-07-13T15:50:20;5.4;;;2.8;;
77802;SDS011;66993;48.256;16.422;2023-07-13T15:55:20;6.2;;;2.7;;
77802;SDS011;66993;48.256;16.422;2023-07-13T16:00:23;4.3;;;2.7;;
77802;SDS011;66993;48.256;16.422;2023-07-13T16:05:23;5.4;;;2.7;;
77802;SDS011;66993;48.256;16.422;2023-07-13T16:10:26;5.1;;;2.8;;
77802;SDS011;66993;48.256;16.422;2023-07-13T16:15:26;5.2;;;2.8;;
77802;SDS011;66993;48.256;16.422;2023-07-13T16:20:26;5.4;;;3.0;;
77802;SDS011;66993;48.256;16.422;2023-07-13T16:25:28;4.5;;;2.4;;
77802;SDS011;66993;48.256;16.422;2023-07-13T16:30:29;5.0;;;2.8;;
77802;SDS011;66993;48.256;16.422;2023-07-13T16:35:31;5.1;;;2.6;;
77802;SDS011;66993;48.256;16.422;2023-07-13T16:40:32;6.1;;;2.8;;
77802;SDS011;66993;48.256;16.422;2023-07-13T16:45:33;5.4;;;2.5;;
77802;SDS011;66993;48.256;16.422;2023-07-13T16:50:34;5.2;;;2.5;;
77802;SDS011;66993;48.256;16.422;2023-07-13T16:55:36;5.7;;;2.6;;
77802;SDS011;66993;48.256;16.422;2023-07-13T17:00:37;5.9;;;2.6;;
77802;SDS011;66993;48.256;16.422;2023-07-13T17:05:38;6.0;;;2.7;;
77802;SDS011;66993;48.256;16.422;2023-07-13T17:10:39;4.8;;;2.6;;
77802;SDS011;66993;48.256;16.422;2023-07-13T17:15:41;5.4;;;2.7;;
77802;SDS011;66993;48.256;16.422;2023-07-13T17:20:43;4.1;;;2.4;;
77802;SDS011;66993;48.256;16.422;2023-07-13T17:25:43;4.4;;;2.5;;
77802;SDS011;66993;48.256;16.422;2023-07-13T17:30:44;6.8;;;2.6;;
77802;SDS011;66993;48.256;16.422;2023-07-13T17:35:46;4.9;;;2.5;;
77802;SDS011;66993;48.256;16.422;2023-07-13T17:40:47;5.7;;;2.2;;
77802;SDS011;66993;48.256;16.422;2023-07-13T17:45:48;4.5;;;2.5;;
77802;SDS011;66993;48.256;16.422;2023-07-13T17:50:49;5.9;;;2.4;;
77802;SDS011;66993;48.256;16.422;2023-07-13T17:55:51;4.2;;;2.4;;
77802;SDS011;66993;48.256;16.422;2023-07-13T18:00:52;6.1;;;2.8;;
77802;SDS011;66993;48.256;16.422;2023-07-13T18:05:54;5.1;;;2.7;;
77802;SDS011;66993;48.256;16.422;2023-07-13T18:10:56;4.2;;;2.3;;
77802;SDS011;66993;48.256;16.422;2023-07-13T18:15:56;6.9;;;2.4;;
77802;SDS011;66993;48.256;16.422;2023-07-13T18:20:57;5.3;;;2.5;;
77802;SDS011;66993;48.256;16.422;2023-07-13T18:25:58;5.4;;;2.5;;
77802;SDS011;66993;48.256;16.422;2023-07-13T18:30:59;5.8;;;2.3;;
77802;SDS011;66993;48.256;16.422;2023-07-13T18:36:01;5.2;;;2.4;;
77802;SDS011;66993;48.256;16.422;2023-07-13T18:41:02;4.7;;;2.3;;
77802;SDS011;66993;48.256;16.422;2023-07-13T18:46:09;5.0;;;2.7;;
77802;SDS011;66993;48.256;16.422;2023-07-13T18:51:04;4.7;;;2.3;;
77802;SDS011;66993;48.256;16.422;2023-07-13T18:56:06;5.4;;;2.3;;
77802;SDS011;66993;48.256;16.422;2023-07-13T19:01:12;6.0;;;2.2;;
77802;SDS011;66993;48.256;16.422;2023-07-13T19:06:09;4.6;;;2.4;;
77802;SDS011;66993;48.256;16.422;2023-07-13T19:11:11;4.9;;;2.4;;
77802;SDS011;66993;48.256;16.422;2023-07-13T19:16:12;4.2;;;2.2;;
77802;SDS011;66993;48.256;16.422;2023-07-13T19:21:17;5.7;;;2.1;;
77802;SDS011;66993;48.256;16.422;2023-07-13T19:26:16;6.4;;;2.3;;
77802;SDS011;66993;48.256;16.422;2023-07-13T19:31:17;4.5;;;2.2;;
77802;SDS011;66993;48.256;16.422;2023-07-13T19:36:16;5.4;;;2.5;;
77802;SDS011;66993;48.256;16.422;2023-07-13T19:41:18;3.6;;;2.4;;
77802;SDS011;66993;48.256;16.422;2023-07-13T19:46:20;5.5;;;2.4;;
77802;SDS011;66993;48.256;16.422;2023-07-13T19:51:25;5.0;;;2.4;;
77802;SDS011;66993;48.256;16.422;2023-07-13T19:56:22;7.4;;;2.5;;
77802;SDS011;66993;48.256;16.422;2023-07-13T20:01:22;4.5;;;2.7;;
77802;SDS011;66993;48.256;16.422;2023-07-13T20:06:25;4.3;;;2.5;;
77802;SDS011;66993;48.256;16.422;2023-07-13T20:11:25;5.2;;;2.3;;
77802;SDS011;66993;48.256;16.422;2023-07-13T20:16:26;4.8;;;2.5;;
77802;SDS011;66993;48.256;16.422;2023-07-13T20:21:27;5.9;;;2.4;;
77802;SDS011;66993;48.256;16.422;2023-07-13T20:26:28;5.9;;;2.7;;
77802;SDS011;66993;48.256;16.422;2023-07-13T20:31:29;6.5;;;2.5;;
77802;SDS011;66993;48.256;16.422;2023-07-13T20:36:31;4.8;;;2.2;;
77802;SDS011;66993;48.256;16.422;2023-07-13T20:41:32;5.4;;;2.4;;
77802;SDS011;66993;48.256;16.422;2023-07-13T20:46:34;5.3;;;2.4;;
77802;SDS011;66993;48.256;16.422;2023-07-13T20:51:34;5.5;;;2.6;;
77802;SDS011;66993;48.256;16.422;2023-07-13T20:56:36;5.9;;;2.5;;
77802;SDS011;66993;48.256;16.422;2023-07-13T21:01:37;5.4;;;2.3;;
77802;SDS011;66993;48.256;16.422;2023-07-13T21:06:39;5.0;;;2.4;;
77802;SDS011;66993;48.256;16.422;2023-07-13T21:11:39;4.5;;;2.6;;
77802;SDS011;66993;48.256;16.422;2023-07-13T21:16:41;5.2;;;2.7;;
77802;SDS011;66993;48.256;16.422;2023-07-13T21:21:42;6.3;;;2.4;;
77802;SDS011;66993;48.256;16.422;2023-07-13T21:26:43;6.7;;;2.4;;
77802;SDS011;66993;48.256;16.422;2023-07-13T21:31:45;4.3;;;2.3;;
77802;SDS011;66993;48.256;16.422;2023-07-13T21:36:46;3.9;;;2.3;;
77802;SDS011;66993;48.256;16.422;2023-07-13T21:41:47;5.4;;;2.4;;
77802;SDS011;66993;48.256;16.422;2023-07-13T21:46:49;4.3;;;2.1;;
77802;SDS011;66993;48.256;16.422;2023-07-13T21:51:50;4.9;;;2.1;;
77802;SDS011;66993;48.256;16.422;2023-07-13T21:56:52;6.0;;;2.3;;
77802;SDS011;66993;48.256;16.422;2023-07-13T22:01:53;5.6;;;2.4;;
77802;SDS011;66993;48.256;16.422;2023-07-13T22:06:54;5.2;;;2.4;;
77802;SDS011;66993;48.256;16.422;2023-07-13T22:11:55;4.6;;;2.2;;
77802;SDS011;66993;48.256;16.422;2023-07-13T22:16:56;4.9;;;2.1;;
77802;SDS011;66993;48.256;16.422;2023-07-13T22:21:58;5.2;;;2.5;;
77802;SDS011;66993;48.256;16.422;2023-07-13T22:26:59;5.2;;;2.5;;
77802;SDS011;66993;48.256;16.422;2023-07-13T22:32:00;5.3;;;2.4;;
77802;SDS011;66993;48.256;16.422;2023-07-13T22:37:02;6.8;;;2.6;;
77802;SDS011;66993;48.256;16.422;2023-07-13T22:42:03;4.9;;;2.2;;
77802;SDS011;66993;48.256;16.422;2023-07-13T22:47:04;6.8;;;2.1;;
77802;SDS011;66993;48.256;16.422;2023-07-13T22:52:08;4.4;;;2.0;;
77802;SDS011;66993;48.256;16.422;2023-07-13T22:57:07;4.6;;;2.4;;
77802;SDS011;66993;48.256;16.422;2023-07-13T23:02:10;5.1;;;2.3;;
77802;SDS011;66993;48.256;16.422;2023-07-13T23:07:09;4.8;;;2.0;;
77802;SDS011;66993;48.256;16.422;2023-07-13T23:12:11;4.5;;;2.4;;
77802;SDS011;66993;48.256;16.422;2023-07-13T23:17:12;5.1;;;2.2;;
77802;SDS011;66993;48.256;16.422;2023-07-13T23:22:22;4.8;;;2.2;;
77802;SDS011;66993;48.256;16.422;2023-07-13T23:27:19;4.1;;;2.3;;
77802;SDS011;66993;48.256;16.422;2023-07-13T23:32:16;5.2;;;1.9;;
77802;SDS011;66993;48.256;16.422;2023-07-13T23:37:17;4.3;;;2.3;;
77802;SDS011;66993;48.256;16.422;2023-07-13T23:42:18;5.0;;;2.2;;
77802;SDS011;66993;48.256;16.422;2023-07-13T23:47:20;4.5;;;2.3;;
77802;SDS011;66993;48.256;16.422;2023-07-13T23:52:21;4.1;;;2.1;;
77802;SDS011;66993;48.256;16.422;2023-07-13T23:57:22;4.1;;;2.0;;
